UAAH/BXH METAR and TAF weather

Enter ICAO airport designator
Station Type Date Time Source
UAAH METAR 2019/02/20 12:30 UTC NOAA

UAAH 201230Z 25002MPS 6000 -SHSN BKN033CB M05/M06 Q1019 NOSIG RMK QFE727/0969


Station Type Date Time Source
UAAH Decoded METAR 2019/02/20 12:30 UTC NOAA

Station name not available
Feb 20, 2019 - 07:30 AM EST / 2019.02.20 1230 UTC
Wind: from the WSW (250 degrees) at 4 MPH (4 KT):0
Visibility: 3 mile(s):0
Sky conditions: mostly cloudy
Weather: light snow showers; Cumulonimbus clouds observed
Temperature: 23 F (-5 C)
Dew Point: 21 F (-6 C)
Relative Humidity: 92%
Pressure (altimeter): 30.09 in. Hg (1019 hPa)
ob: UAAH 201230Z 25002MPS 6000 -SHSN BKN033CB M05/M06 Q1019 NOSIG RMK QFE727/0969
cycle: 12

Station Type Date Time Source
UAAH TAF 2016/09/21 12:09 UTC NOAA

TAF
AMD TAF
AMD UAAH 211506Z 2112/2124 36006MPS CAVOK


Example: see airport list